sensor_id;sensor_type;location;lat;lon;timestamp;P1;durP1;ratioP1;P2;durP2;ratioP2
54679;SDS011;40578;53.178;5.846;2023-04-30T00:01:42;12.57;;;4.90;;
54679;SDS011;40578;53.178;5.846;2023-04-30T00:04:07;8.90;;;4.90;;
54679;SDS011;40578;53.178;5.846;2023-04-30T00:06:33;9.90;;;5.13;;
54679;SDS011;40578;53.178;5.846;2023-04-30T00:08:58;13.70;;;6.73;;
54679;SDS011;40578;53.178;5.846;2023-04-30T00:11:24;8.93;;;4.87;;
54679;SDS011;40578;53.178;5.846;2023-04-30T00:13:50;9.33;;;4.93;;
54679;SDS011;40578;53.178;5.846;2023-04-30T00:16:16;8.77;;;4.90;;
54679;SDS011;40578;53.178;5.846;2023-04-30T00:18:42;8.45;;;4.60;;
54679;SDS011;40578;53.178;5.846;2023-04-30T00:21:07;8.63;;;5.10;;
54679;SDS011;40578;53.178;5.846;2023-04-30T00:23:33;8.53;;;4.67;;
54679;SDS011;40578;53.178;5.846;2023-04-30T00:25:59;10.87;;;5.93;;
54679;SDS011;40578;53.178;5.846;2023-04-30T00:28:25;11.20;;;5.50;;
54679;SDS011;40578;53.178;5.846;2023-04-30T00:30:51;11.87;;;5.73;;
54679;SDS011;40578;53.178;5.846;2023-04-30T00:33:17;11.38;;;5.80;;
54679;SDS011;40578;53.178;5.846;2023-04-30T00:35:43;14.83;;;6.53;;
54679;SDS011;40578;53.178;5.846;2023-04-30T00:38:08;10.47;;;5.17;;
54679;SDS011;40578;53.178;5.846;2023-04-30T00:40:34;9.80;;;6.13;;
54679;SDS011;40578;53.178;5.846;2023-04-30T00:43:01;11.45;;;6.05;;
54679;SDS011;40578;53.178;5.846;2023-04-30T00:45:27;9.47;;;5.70;;
54679;SDS011;40578;53.178;5.846;2023-04-30T00:47:52;9.70;;;5.53;;
54679;SDS011;40578;53.178;5.846;2023-04-30T00:50:18;13.13;;;7.03;;
54679;SDS011;40578;53.178;5.846;2023-04-30T00:52:44;13.97;;;7.03;;
54679;SDS011;40578;53.178;5.846;2023-04-30T00:55:10;15.90;;;6.93;;
54679;SDS011;40578;53.178;5.846;2023-04-30T01:00:02;12.20;;;7.65;;
54679;SDS011;40578;53.178;5.846;2023-04-30T01:02:29;16.75;;;7.35;;
54679;SDS011;40578;53.178;5.846;2023-04-30T01:04:55;16.08;;;7.10;;
54679;SDS011;40578;53.178;5.846;2023-04-30T01:07:22;15.93;;;6.97;;
54679;SDS011;40578;53.178;5.846;2023-04-30T01:09:49;13.15;;;6.70;;
54679;SDS011;40578;53.178;5.846;2023-04-30T01:15:39;12.85;;;7.10;;
54679;SDS011;40578;53.178;5.846;2023-04-30T01:20:38;11.85;;;6.28;;
54679;SDS011;40578;53.178;5.846;2023-04-30T01:25:52;12.55;;;6.80;;
54679;SDS011;40578;53.178;5.846;2023-04-30T01:28:25;13.27;;;6.68;;
54679;SDS011;40578;53.178;5.846;2023-04-30T01:30:52;16.25;;;6.28;;
54679;SDS011;40578;53.178;5.846;2023-04-30T01:33:18;12.37;;;6.53;;
54679;SDS011;40578;53.178;5.846;2023-04-30T01:38:37;13.70;;;6.13;;
54679;SDS011;40578;53.178;5.846;2023-04-30T01:46:32;16.58;;;6.90;;
54679;SDS011;40578;53.178;5.846;2023-04-30T01:49:16;16.75;;;6.60;;
54679;SDS011;40578;53.178;5.846;2023-04-30T01:57:32;13.63;;;6.90;;
54679;SDS011;40578;53.178;5.846;2023-04-30T02:00:02;10.77;;;6.10;;
54679;SDS011;40578;53.178;5.846;2023-04-30T02:02:29;13.18;;;6.35;;
54679;SDS011;40578;53.178;5.846;2023-04-30T02:04:54;12.50;;;6.93;;
54679;SDS011;40578;53.178;5.846;2023-04-30T02:07:27;12.40;;;6.70;;
54679;SDS011;40578;53.178;5.846;2023-04-30T02:10:05;13.73;;;6.65;;
54679;SDS011;40578;53.178;5.846;2023-04-30T02:12:32;15.63;;;6.90;;
54679;SDS011;40578;53.178;5.846;2023-04-30T02:14:57;9.83;;;6.40;;
54679;SDS011;40578;53.178;5.846;2023-04-30T02:17:23;13.07;;;7.40;;
54679;SDS011;40578;53.178;5.846;2023-04-30T02:19:49;12.93;;;6.93;;
54679;SDS011;40578;53.178;5.846;2023-04-30T02:22:14;15.40;;;6.77;;
54679;SDS011;40578;53.178;5.846;2023-04-30T02:24:40;25.83;;;7.30;;
54679;SDS011;40578;53.178;5.846;2023-04-30T02:27:05;11.80;;;6.93;;
54679;SDS011;40578;53.178;5.846;2023-04-30T02:29:31;13.87;;;6.67;;
54679;SDS011;40578;53.178;5.846;2023-04-30T02:31:57;12.77;;;7.03;;
54679;SDS011;40578;53.178;5.846;2023-04-30T02:34:23;15.52;;;6.40;;
54679;SDS011;40578;53.178;5.846;2023-04-30T02:36:50;19.27;;;7.37;;
54679;SDS011;40578;53.178;5.846;2023-04-30T02:39:15;16.45;;;6.82;;
54679;SDS011;40578;53.178;5.846;2023-04-30T02:41:41;17.43;;;6.70;;
54679;SDS011;40578;53.178;5.846;2023-04-30T02:44:07;13.57;;;6.70;;
54679;SDS011;40578;53.178;5.846;2023-04-30T02:46:33;12.23;;;6.83;;
54679;SDS011;40578;53.178;5.846;2023-04-30T02:48:58;12.77;;;7.13;;
54679;SDS011;40578;53.178;5.846;2023-04-30T02:51:24;13.40;;;7.10;;
54679;SDS011;40578;53.178;5.846;2023-04-30T02:53:49;15.27;;;7.67;;
54679;SDS011;40578;53.178;5.846;2023-04-30T02:56:16;14.85;;;7.40;;
54679;SDS011;40578;53.178;5.846;2023-04-30T02:58:41;15.37;;;7.87;;
54679;SDS011;40578;53.178;5.846;2023-04-30T03:01:07;11.73;;;7.00;;
54679;SDS011;40578;53.178;5.846;2023-04-30T03:03:32;13.40;;;7.23;;
54679;SDS011;40578;53.178;5.846;2023-04-30T03:05:58;12.43;;;7.77;;
54679;SDS011;40578;53.178;5.846;2023-04-30T03:08:24;13.83;;;7.47;;
54679;SDS011;40578;53.178;5.846;2023-04-30T03:10:50;14.65;;;7.80;;
54679;SDS011;40578;53.178;5.846;2023-04-30T03:13:16;13.75;;;7.38;;
54679;SDS011;40578;53.178;5.846;2023-04-30T03:15:42;12.43;;;6.97;;
54679;SDS011;40578;53.178;5.846;2023-04-30T03:18:08;13.93;;;6.93;;
54679;SDS011;40578;53.178;5.846;2023-04-30T03:20:34;12.70;;;7.03;;
54679;SDS011;40578;53.178;5.846;2023-04-30T03:23:00;13.23;;;7.00;;
54679;SDS011;40578;53.178;5.846;2023-04-30T03:25:25;11.77;;;6.47;;
54679;SDS011;40578;53.178;5.846;2023-04-30T03:27:51;17.93;;;6.30;;
54679;SDS011;40578;53.178;5.846;2023-04-30T03:30:16;13.20;;;6.27;;
54679;SDS011;40578;53.178;5.846;2023-04-30T03:32:42;12.93;;;6.03;;
54679;SDS011;40578;53.178;5.846;2023-04-30T03:35:08;14.13;;;6.03;;
54679;SDS011;40578;53.178;5.846;2023-04-30T03:37:35;13.33;;;6.20;;
54679;SDS011;40578;53.178;5.846;2023-04-30T03:40:00;10.70;;;6.20;;
54679;SDS011;40578;53.178;5.846;2023-04-30T03:42:26;11.23;;;5.30;;
54679;SDS011;40578;53.178;5.846;2023-04-30T03:44:51;16.63;;;5.83;;
54679;SDS011;40578;53.178;5.846;2023-04-30T03:47:17;13.17;;;5.90;;
54679;SDS011;40578;53.178;5.846;2023-04-30T03:49:43;14.63;;;6.67;;
54679;SDS011;40578;53.178;5.846;2023-04-30T03:52:08;13.30;;;6.10;;
54679;SDS011;40578;53.178;5.846;2023-04-30T03:54:35;10.38;;;5.95;;
54679;SDS011;40578;53.178;5.846;2023-04-30T03:57:00;11.03;;;6.10;;
54679;SDS011;40578;53.178;5.846;2023-04-30T03:59:28;8.93;;;5.60;;
54679;SDS011;40578;53.178;5.846;2023-04-30T04:01:56;11.30;;;5.80;;
54679;SDS011;40578;53.178;5.846;2023-04-30T04:04:21;10.80;;;5.70;;
54679;SDS011;40578;53.178;5.846;2023-04-30T04:06:47;12.00;;;5.30;;
54679;SDS011;40578;53.178;5.846;2023-04-30T04:09:13;10.47;;;5.23;;
54679;SDS011;40578;53.178;5.846;2023-04-30T04:11:38;10.33;;;5.57;;
54679;SDS011;40578;53.178;5.846;2023-04-30T04:14:04;9.70;;;5.77;;
54679;SDS011;40578;53.178;5.846;2023-04-30T04:16:29;9.77;;;5.00;;
54679;SDS011;40578;53.178;5.846;2023-04-30T04:18:55;7.40;;;4.63;;
54679;SDS011;40578;53.178;5.846;2023-04-30T04:21:20;11.80;;;5.83;;
54679;SDS011;40578;53.178;5.846;2023-04-30T04:23:46;12.27;;;5.83;;
54679;SDS011;40578;53.178;5.846;2023-04-30T04:26:11;12.17;;;5.03;;
54679;SDS011;40578;53.178;5.846;2023-04-30T04:28:37;10.57;;;5.37;;
54679;SDS011;40578;53.178;5.846;2023-04-30T04:31:03;15.30;;;5.60;;
54679;SDS011;40578;53.178;5.846;2023-04-30T04:33:29;10.23;;;5.63;;
54679;SDS011;40578;53.178;5.846;2023-04-30T04:35:55;12.25;;;5.88;;
54679;SDS011;40578;53.178;5.846;2023-04-30T04:38:21;9.88;;;5.28;;
54679;SDS011;40578;53.178;5.846;2023-04-30T04:40:51;9.73;;;5.30;;
54679;SDS011;40578;53.178;5.846;2023-04-30T04:43:17;17.80;;;5.22;;
54679;SDS011;40578;53.178;5.846;2023-04-30T04:45:44;13.10;;;5.70;;
54679;SDS011;40578;53.178;5.846;2023-04-30T04:48:10;8.77;;;5.32;;
54679;SDS011;40578;53.178;5.846;2023-04-30T04:50:35;9.83;;;5.63;;
54679;SDS011;40578;53.178;5.846;2023-04-30T04:53:01;8.93;;;5.30;;
54679;SDS011;40578;53.178;5.846;2023-04-30T04:55:26;12.77;;;5.33;;
54679;SDS011;40578;53.178;5.846;2023-04-30T04:57:52;7.97;;;4.90;;
54679;SDS011;40578;53.178;5.846;2023-04-30T05:00:18;8.97;;;5.23;;
54679;SDS011;40578;53.178;5.846;2023-04-30T05:02:46;11.73;;;5.45;;
54679;SDS011;40578;53.178;5.846;2023-04-30T05:05:11;11.43;;;5.43;;
54679;SDS011;40578;53.178;5.846;2023-04-30T05:07:37;10.73;;;5.33;;
54679;SDS011;40578;53.178;5.846;2023-04-30T05:10:03;12.93;;;5.30;;
54679;SDS011;40578;53.178;5.846;2023-04-30T05:12:28;12.23;;;5.67;;
54679;SDS011;40578;53.178;5.846;2023-04-30T05:14:54;15.67;;;5.93;;
54679;SDS011;40578;53.178;5.846;2023-04-30T05:17:19;11.57;;;5.60;;
54679;SDS011;40578;53.178;5.846;2023-04-30T05:19:45;11.27;;;5.63;;
54679;SDS011;40578;53.178;5.846;2023-04-30T05:22:12;11.02;;;5.38;;
54679;SDS011;40578;53.178;5.846;2023-04-30T05:24:38;13.83;;;5.63;;
54679;SDS011;40578;53.178;5.846;2023-04-30T05:27:04;12.70;;;5.10;;
54679;SDS011;40578;53.178;5.846;2023-04-30T05:29:30;14.40;;;5.70;;
54679;SDS011;40578;53.178;5.846;2023-04-30T05:31:55;12.63;;;5.03;;
54679;SDS011;40578;53.178;5.846;2023-04-30T05:34:21;12.97;;;5.67;;
54679;SDS011;40578;53.178;5.846;2023-04-30T05:36:47;13.53;;;5.67;;
54679;SDS011;40578;53.178;5.846;2023-04-30T05:39:13;9.85;;;5.00;;
54679;SDS011;40578;53.178;5.846;2023-04-30T05:41:39;12.27;;;5.30;;
54679;SDS011;40578;53.178;5.846;2023-04-30T05:44:04;14.60;;;5.40;;
54679;SDS011;40578;53.178;5.846;2023-04-30T05:46:30;10.60;;;4.97;;
54679;SDS011;40578;53.178;5.846;2023-04-30T05:48:56;13.45;;;5.35;;
54679;SDS011;40578;53.178;5.846;2023-04-30T05:51:22;14.43;;;5.30;;
54679;SDS011;40578;53.178;5.846;2023-04-30T05:53:47;10.17;;;5.37;;
54679;SDS011;40578;53.178;5.846;2023-04-30T05:56:13;14.00;;;6.00;;
54679;SDS011;40578;53.178;5.846;2023-04-30T05:58:39;13.97;;;5.80;;
54679;SDS011;40578;53.178;5.846;2023-04-30T06:01:04;11.50;;;5.73;;
54679;SDS011;40578;53.178;5.846;2023-04-30T06:03:30;15.97;;;6.27;;
54679;SDS011;40578;53.178;5.846;2023-04-30T06:05:56;13.93;;;5.80;;
54679;SDS011;40578;53.178;5.846;2023-04-30T06:08:22;11.07;;;5.30;;
54679;SDS011;40578;53.178;5.846;2023-04-30T06:10:47;10.23;;;5.70;;
54679;SDS011;40578;53.178;5.846;2023-04-30T06:13:14;14.15;;;5.95;;
54679;SDS011;40578;53.178;5.846;2023-04-30T06:15:40;16.20;;;5.40;;
54679;SDS011;40578;53.178;5.846;2023-04-30T06:18:06;11.10;;;5.67;;
54679;SDS011;40578;53.178;5.846;2023-04-30T06:20:31;18.10;;;5.43;;
54679;SDS011;40578;53.178;5.846;2023-04-30T06:22:57;13.47;;;4.97;;
54679;SDS011;40578;53.178;5.846;2023-04-30T06:25:24;10.13;;;4.82;;
54679;SDS011;40578;53.178;5.846;2023-04-30T06:27:50;10.35;;;4.80;;
54679;SDS011;40578;53.178;5.846;2023-04-30T06:30:18;12.27;;;4.72;;
54679;SDS011;40578;53.178;5.846;2023-04-30T06:32:43;10.17;;;5.20;;
54679;SDS011;40578;53.178;5.846;2023-04-30T06:35:09;13.23;;;5.63;;
54679;SDS011;40578;53.178;5.846;2023-04-30T06:37:35;11.33;;;5.37;;
54679;SDS011;40578;53.178;5.846;2023-04-30T06:40:04;14.15;;;5.63;;
54679;SDS011;40578;53.178;5.846;2023-04-30T06:42:31;12.32;;;5.07;;
54679;SDS011;40578;53.178;5.846;2023-04-30T06:45:01;8.35;;;4.95;;
54679;SDS011;40578;53.178;5.846;2023-04-30T06:47:28;10.90;;;4.97;;
54679;SDS011;40578;53.178;5.846;2023-04-30T06:49:58;9.60;;;4.45;;
54679;SDS011;40578;53.178;5.846;2023-04-30T06:52:27;13.20;;;4.68;;
54679;SDS011;40578;53.178;5.846;2023-04-30T06:54:53;10.77;;;4.60;;
54679;SDS011;40578;53.178;5.846;2023-04-30T06:57:18;12.37;;;4.60;;
54679;SDS011;40578;53.178;5.846;2023-04-30T06:59:44;8.87;;;4.37;;
54679;SDS011;40578;53.178;5.846;2023-04-30T07:02:10;10.63;;;4.33;;
54679;SDS011;40578;53.178;5.846;2023-04-30T07:04:35;14.00;;;4.67;;
54679;SDS011;40578;53.178;5.846;2023-04-30T07:07:01;10.10;;;4.60;;
54679;SDS011;40578;53.178;5.846;2023-04-30T07:09:27;10.33;;;4.73;;
54679;SDS011;40578;53.178;5.846;2023-04-30T07:11:53;10.02;;;4.22;;
54679;SDS011;40578;53.178;5.846;2023-04-30T07:14:19;10.10;;;4.07;;
54679;SDS011;40578;53.178;5.846;2023-04-30T07:16:45;11.40;;;4.67;;
54679;SDS011;40578;53.178;5.846;2023-04-30T07:19:14;9.82;;;3.70;;
54679;SDS011;40578;53.178;5.846;2023-04-30T07:21:39;11.17;;;4.13;;
54679;SDS011;40578;53.178;5.846;2023-04-30T07:24:05;12.70;;;4.30;;
54679;SDS011;40578;53.178;5.846;2023-04-30T07:26:31;10.70;;;3.37;;
54679;SDS011;40578;53.178;5.846;2023-04-30T07:28:56;11.90;;;4.17;;
54679;SDS011;40578;53.178;5.846;2023-04-30T07:31:22;11.57;;;4.60;;
54679;SDS011;40578;53.178;5.846;2023-04-30T07:33:48;12.05;;;4.43;;
54679;SDS011;40578;53.178;5.846;2023-04-30T07:36:14;6.55;;;4.28;;
54679;SDS011;40578;53.178;5.846;2023-04-30T07:38:40;8.88;;;4.45;;
54679;SDS011;40578;53.178;5.846;2023-04-30T07:41:06;13.50;;;4.60;;
54679;SDS011;40578;53.178;5.846;2023-04-30T07:43:33;14.90;;;4.72;;
54679;SDS011;40578;53.178;5.846;2023-04-30T07:45:59;9.63;;;4.68;;
54679;SDS011;40578;53.178;5.846;2023-04-30T07:48:25;12.60;;;4.87;;
54679;SDS011;40578;53.178;5.846;2023-04-30T07:50:51;11.20;;;4.93;;
54679;SDS011;40578;53.178;5.846;2023-04-30T07:53:16;11.20;;;4.63;;
54679;SDS011;40578;53.178;5.846;2023-04-30T07:55:42;12.93;;;5.07;;
54679;SDS011;40578;53.178;5.846;2023-04-30T07:58:08;10.40;;;4.30;;
54679;SDS011;40578;53.178;5.846;2023-04-30T08:00:33;9.60;;;4.13;;
54679;SDS011;40578;53.178;5.846;2023-04-30T08:02:59;10.30;;;4.80;;
54679;SDS011;40578;53.178;5.846;2023-04-30T08:05:26;11.33;;;4.57;;
54679;SDS011;40578;53.178;5.846;2023-04-30T08:07:52;10.95;;;4.82;;
54679;SDS011;40578;53.178;5.846;2023-04-30T08:10:18;9.63;;;4.70;;
54679;SDS011;40578;53.178;5.846;2023-04-30T08:12:44;12.80;;;4.67;;
54679;SDS011;40578;53.178;5.846;2023-04-30T08:15:09;10.63;;;4.33;;
54679;SDS011;40578;53.178;5.846;2023-04-30T08:17:35;9.00;;;4.27;;
54679;SDS011;40578;53.178;5.846;2023-04-30T08:20:02;9.13;;;4.27;;
54679;SDS011;40578;53.178;5.846;2023-04-30T08:22:28;11.52;;;4.93;;
54679;SDS011;40578;53.178;5.846;2023-04-30T08:24:54;12.20;;;4.78;;
54679;SDS011;40578;53.178;5.846;2023-04-30T08:27:20;10.80;;;4.80;;
54679;SDS011;40578;53.178;5.846;2023-04-30T08:29:46;13.13;;;4.28;;
54679;SDS011;40578;53.178;5.846;2023-04-30T08:32:12;11.00;;;4.67;;
54679;SDS011;40578;53.178;5.846;2023-04-30T08:34:38;8.63;;;4.87;;
54679;SDS011;40578;53.178;5.846;2023-04-30T08:37:07;12.15;;;4.28;;
54679;SDS011;40578;53.178;5.846;2023-04-30T08:39:33;8.23;;;4.37;;
54679;SDS011;40578;53.178;5.846;2023-04-30T08:42:00;8.97;;;4.17;;
54679;SDS011;40578;53.178;5.846;2023-04-30T08:44:28;11.07;;;3.97;;
54679;SDS011;40578;53.178;5.846;2023-04-30T08:46:55;8.98;;;3.75;;
54679;SDS011;40578;53.178;5.846;2023-04-30T08:49:22;11.05;;;4.10;;
54679;SDS011;40578;53.178;5.846;2023-04-30T08:51:49;10.10;;;4.35;;
54679;SDS011;40578;53.178;5.846;2023-04-30T08:54:15;6.82;;;4.00;;
54679;SDS011;40578;53.178;5.846;2023-04-30T08:59:09;8.20;;;3.90;;
54679;SDS011;40578;53.178;5.846;2023-04-30T09:01:36;7.80;;;3.72;;
54679;SDS011;40578;53.178;5.846;2023-04-30T09:04:02;8.20;;;3.73;;
54679;SDS011;40578;53.178;5.846;2023-04-30T09:08:54;9.40;;;3.65;;
54679;SDS011;40578;53.178;5.846;2023-04-30T09:11:20;8.13;;;3.90;;
54679;SDS011;40578;53.178;5.846;2023-04-30T09:13:48;9.40;;;3.88;;
54679;SDS011;40578;53.178;5.846;2023-04-30T09:16:19;7.15;;;3.38;;
54679;SDS011;40578;53.178;5.846;2023-04-30T09:21:11;8.57;;;4.13;;
54679;SDS011;40578;53.178;5.846;2023-04-30T09:23:50;9.70;;;4.20;;
54679;SDS011;40578;53.178;5.846;2023-04-30T09:26:26;8.95;;;4.30;;
54679;SDS011;40578;53.178;5.846;2023-04-30T09:28:57;12.73;;;4.10;;
54679;SDS011;40578;53.178;5.846;2023-04-30T09:31:24;11.27;;;3.90;;
54679;SDS011;40578;53.178;5.846;2023-04-30T09:33:50;9.38;;;4.65;;
54679;SDS011;40578;53.178;5.846;2023-04-30T09:36:16;10.32;;;4.20;;
54679;SDS011;40578;53.178;5.846;2023-04-30T09:38:45;8.93;;;4.03;;
54679;SDS011;40578;53.178;5.846;2023-04-30T09:41:24;10.67;;;3.97;;
54679;SDS011;40578;53.178;5.846;2023-04-30T09:43:51;12.25;;;4.28;;
54679;SDS011;40578;53.178;5.846;2023-04-30T09:46:18;8.85;;;3.53;;
54679;SDS011;40578;53.178;5.846;2023-04-30T09:48:45;9.50;;;3.95;;
54679;SDS011;40578;53.178;5.846;2023-04-30T09:51:13;8.40;;;3.90;;
54679;SDS011;40578;53.178;5.846;2023-04-30T09:53:42;7.50;;;3.58;;
54679;SDS011;40578;53.178;5.846;2023-04-30T09:56:08;8.30;;;3.72;;
54679;SDS011;40578;53.178;5.846;2023-04-30T09:58:37;6.85;;;3.22;;
54679;SDS011;40578;53.178;5.846;2023-04-30T10:01:04;8.88;;;3.33;;
54679;SDS011;40578;53.178;5.846;2023-04-30T10:03:32;10.35;;;3.70;;
54679;SDS011;40578;53.178;5.846;2023-04-30T10:05:58;16.65;;;13.50;;
54679;SDS011;40578;53.178;5.846;2023-04-30T10:08:26;7.70;;;3.20;;
54679;SDS011;40578;53.178;5.846;2023-04-30T10:10:58;8.38;;;3.33;;
54679;SDS011;40578;53.178;5.846;2023-04-30T10:13:30;7.38;;;3.10;;
54679;SDS011;40578;53.178;5.846;2023-04-30T10:15:58;7.13;;;3.58;;
54679;SDS011;40578;53.178;5.846;2023-04-30T10:18:28;8.60;;;3.40;;
54679;SDS011;40578;53.178;5.846;2023-04-30T10:20:58;7.88;;;3.28;;
54679;SDS011;40578;53.178;5.846;2023-04-30T10:23:28;10.85;;;4.22;;
54679;SDS011;40578;53.178;5.846;2023-04-30T10:25:55;8.95;;;3.80;;
54679;SDS011;40578;53.178;5.846;2023-04-30T10:28:22;9.85;;;4.18;;
54679;SDS011;40578;53.178;5.846;2023-04-30T10:30:47;10.75;;;3.95;;
54679;SDS011;40578;53.178;5.846;2023-04-30T10:33:25;8.93;;;3.38;;
54679;SDS011;40578;53.178;5.846;2023-04-30T10:36:00;5.57;;;3.30;;
54679;SDS011;40578;53.178;5.846;2023-04-30T10:38:29;6.95;;;3.78;;
54679;SDS011;40578;53.178;5.846;2023-04-30T10:40:57;7.07;;;3.47;;
54679;SDS011;40578;53.178;5.846;2023-04-30T10:43:25;8.38;;;3.75;;
54679;SDS011;40578;53.178;5.846;2023-04-30T10:45:53;9.75;;;3.80;;
54679;SDS011;40578;53.178;5.846;2023-04-30T10:48:21;7.43;;;3.25;;
54679;SDS011;40578;53.178;5.846;2023-04-30T10:50:52;8.32;;;3.33;;
54679;SDS011;40578;53.178;5.846;2023-04-30T10:53:20;8.30;;;3.42;;
54679;SDS011;40578;53.178;5.846;2023-04-30T10:55:47;8.77;;;3.55;;
54679;SDS011;40578;53.178;5.846;2023-04-30T10:58:24;5.55;;;2.83;;
54679;SDS011;40578;53.178;5.846;2023-04-30T11:01:13;8.77;;;3.40;;
54679;SDS011;40578;53.178;5.846;2023-04-30T11:03:42;8.20;;;3.08;;
54679;SDS011;40578;53.178;5.846;2023-04-30T11:06:29;7.43;;;3.40;;
54679;SDS011;40578;53.178;5.846;2023-04-30T11:12:09;7.50;;;3.53;;
54679;SDS011;40578;53.178;5.846;2023-04-30T11:14:38;7.38;;;3.20;;
54679;SDS011;40578;53.178;5.846;2023-04-30T11:17:11;6.38;;;2.78;;
54679;SDS011;40578;53.178;5.846;2023-04-30T11:19:47;4.60;;;2.90;;
54679;SDS011;40578;53.178;5.846;2023-04-30T11:22:17;6.43;;;2.60;;
54679;SDS011;40578;53.178;5.846;2023-04-30T11:24:49;7.82;;;2.63;;
54679;SDS011;40578;53.178;5.846;2023-04-30T11:27:42;6.22;;;2.72;;
54679;SDS011;40578;53.178;5.846;2023-04-30T11:30:12;6.35;;;2.72;;
54679;SDS011;40578;53.178;5.846;2023-04-30T11:32:39;8.07;;;2.85;;
54679;SDS011;40578;53.178;5.846;2023-04-30T11:35:07;4.47;;;2.70;;
54679;SDS011;40578;53.178;5.846;2023-04-30T11:37:37;4.32;;;2.50;;
54679;SDS011;40578;53.178;5.846;2023-04-30T11:40:08;5.70;;;2.50;;
54679;SDS011;40578;53.178;5.846;2023-04-30T11:42:39;4.72;;;2.50;;
54679;SDS011;40578;53.178;5.846;2023-04-30T11:45:15;3.55;;;2.22;;
54679;SDS011;40578;53.178;5.846;2023-04-30T11:47:45;7.85;;;2.63;;
54679;SDS011;40578;53.178;5.846;2023-04-30T11:50:13;3.78;;;2.67;;
54679;SDS011;40578;53.178;5.846;2023-04-30T11:52:50;3.60;;;2.28;;
54679;SDS011;40578;53.178;5.846;2023-04-30T11:55:20;3.67;;;2.20;;
54679;SDS011;40578;53.178;5.846;2023-04-30T11:57:48;5.00;;;2.70;;
54679;SDS011;40578;53.178;5.846;2023-04-30T12:00:16;6.03;;;2.78;;
54679;SDS011;40578;53.178;5.846;2023-04-30T12:02:44;6.72;;;2.70;;
54679;SDS011;40578;53.178;5.846;2023-04-30T12:05:19;5.10;;;2.38;;
54679;SDS011;40578;53.178;5.846;2023-04-30T12:10:21;4.30;;;2.33;;
54679;SDS011;40578;53.178;5.846;2023-04-30T12:12:47;3.92;;;2.38;;
54679;SDS011;40578;53.178;5.846;2023-04-30T12:15:18;5.05;;;2.47;;
54679;SDS011;40578;53.178;5.846;2023-04-30T12:17:50;4.45;;;2.50;;
54679;SDS011;40578;53.178;5.846;2023-04-30T12:20:16;4.97;;;2.77;;
54679;SDS011;40578;53.178;5.846;2023-04-30T12:22:42;5.32;;;2.80;;
54679;SDS011;40578;53.178;5.846;2023-04-30T12:25:12;4.05;;;2.45;;
54679;SDS011;40578;53.178;5.846;2023-04-30T12:27:40;5.25;;;2.60;;
54679;SDS011;40578;53.178;5.846;2023-04-30T12:30:09;5.45;;;2.50;;
54679;SDS011;40578;53.178;5.846;2023-04-30T12:32:43;3.88;;;2.10;;
54679;SDS011;40578;53.178;5.846;2023-04-30T12:35:19;4.00;;;2.28;;
54679;SDS011;40578;53.178;5.846;2023-04-30T12:37:47;4.80;;;2.30;;
54679;SDS011;40578;53.178;5.846;2023-04-30T12:40:17;4.35;;;2.38;;
54679;SDS011;40578;53.178;5.846;2023-04-30T12:42:44;4.70;;;2.40;;
54679;SDS011;40578;53.178;5.846;2023-04-30T12:45:11;3.85;;;2.15;;
54679;SDS011;40578;53.178;5.846;2023-04-30T12:47:40;2.50;;;2.05;;
54679;SDS011;40578;53.178;5.846;2023-04-30T12:50:09;3.88;;;2.28;;
54679;SDS011;40578;53.178;5.846;2023-04-30T12:52:39;4.00;;;2.20;;
54679;SDS011;40578;53.178;5.846;2023-04-30T12:55:17;2.53;;;1.88;;
54679;SDS011;40578;53.178;5.846;2023-04-30T13:03:10;4.88;;;2.65;;
54679;SDS011;40578;53.178;5.846;2023-04-30T13:05:36;3.10;;;2.00;;
54679;SDS011;40578;53.178;5.846;2023-04-30T13:08:02;5.10;;;2.00;;
54679;SDS011;40578;53.178;5.846;2023-04-30T13:10:31;2.65;;;1.85;;
54679;SDS011;40578;53.178;5.846;2023-04-30T13:12:57;3.00;;;2.10;;
54679;SDS011;40578;53.178;5.846;2023-04-30T13:15:23;2.55;;;2.00;;
54679;SDS011;40578;53.178;5.846;2023-04-30T13:17:49;3.03;;;1.80;;
54679;SDS011;40578;53.178;5.846;2023-04-30T13:20:14;3.00;;;1.90;;
54679;SDS011;40578;53.178;5.846;2023-04-30T13:22:40;4.60;;;2.22;;
54679;SDS011;40578;53.178;5.846;2023-04-30T13:25:06;7.50;;;2.30;;
54679;SDS011;40578;53.178;5.846;2023-04-30T13:27:32;4.10;;;2.20;;
54679;SDS011;40578;53.178;5.846;2023-04-30T13:29:58;4.07;;;2.30;;
54679;SDS011;40578;53.178;5.846;2023-04-30T13:34:50;3.42;;;1.98;;
54679;SDS011;40578;53.178;5.846;2023-04-30T13:37:19;3.13;;;1.85;;
54679;SDS011;40578;53.178;5.846;2023-04-30T13:39:44;3.17;;;2.20;;
54679;SDS011;40578;53.178;5.846;2023-04-30T13:42:10;3.35;;;2.08;;
54679;SDS011;40578;53.178;5.846;2023-04-30T13:44:37;5.30;;;2.65;;
54679;SDS011;40578;53.178;5.846;2023-04-30T13:47:03;3.72;;;2.30;;
54679;SDS011;40578;53.178;5.846;2023-04-30T13:49:29;4.53;;;2.40;;
54679;SDS011;40578;53.178;5.846;2023-04-30T13:51:55;3.77;;;2.30;;
54679;SDS011;40578;53.178;5.846;2023-04-30T13:54:20;3.57;;;2.37;;
54679;SDS011;40578;53.178;5.846;2023-04-30T13:56:46;4.43;;;2.37;;
54679;SDS011;40578;53.178;5.846;2023-04-30T13:59:13;3.92;;;1.92;;
54679;SDS011;40578;53.178;5.846;2023-04-30T14:01:39;4.22;;;2.53;;
54679;SDS011;40578;53.178;5.846;2023-04-30T14:04:06;5.75;;;2.70;;
54679;SDS011;40578;53.178;5.846;2023-04-30T14:06:32;4.47;;;2.20;;
54679;SDS011;40578;53.178;5.846;2023-04-30T14:08:58;2.92;;;2.20;;
54679;SDS011;40578;53.178;5.846;2023-04-30T14:11:24;3.67;;;2.13;;
54679;SDS011;40578;53.178;5.846;2023-04-30T14:13:51;4.07;;;2.33;;
54679;SDS011;40578;53.178;5.846;2023-04-30T14:16:17;4.15;;;2.35;;
54679;SDS011;40578;53.178;5.846;2023-04-30T14:18:44;3.90;;;2.35;;
54679;SDS011;40578;53.178;5.846;2023-04-30T14:21:10;5.10;;;2.08;;
54679;SDS011;40578;53.178;5.846;2023-04-30T14:23:36;3.53;;;1.93;;
54679;SDS011;40578;53.178;5.846;2023-04-30T14:26:03;2.67;;;1.60;;
54679;SDS011;40578;53.178;5.846;2023-04-30T14:28:29;4.35;;;2.05;;
54679;SDS011;40578;53.178;5.846;2023-04-30T14:30:54;3.20;;;2.00;;
54679;SDS011;40578;53.178;5.846;2023-04-30T14:33:20;5.00;;;2.20;;
54679;SDS011;40578;53.178;5.846;2023-04-30T14:35:46;3.60;;;1.90;;
54679;SDS011;40578;53.178;5.846;2023-04-30T14:38:11;4.10;;;1.90;;
54679;SDS011;40578;53.178;5.846;2023-04-30T14:40:38;4.68;;;2.42;;
54679;SDS011;40578;53.178;5.846;2023-04-30T14:43:03;5.87;;;2.00;;
54679;SDS011;40578;53.178;5.846;2023-04-30T14:45:29;3.30;;;2.10;;
54679;SDS011;40578;53.178;5.846;2023-04-30T14:47:57;6.28;;;2.42;;
54679;SDS011;40578;53.178;5.846;2023-04-30T14:50:22;5.80;;;2.50;;
54679;SDS011;40578;53.178;5.846;2023-04-30T14:52:48;4.90;;;2.20;;
54679;SDS011;40578;53.178;5.846;2023-04-30T14:55:14;3.75;;;1.88;;
54679;SDS011;40578;53.178;5.846;2023-04-30T14:57:40;4.23;;;2.23;;
54679;SDS011;40578;53.178;5.846;2023-04-30T15:00:05;3.53;;;2.17;;
54679;SDS011;40578;53.178;5.846;2023-04-30T15:02:32;3.72;;;2.40;;
54679;SDS011;40578;53.178;5.846;2023-04-30T15:04:57;3.37;;;2.00;;
54679;SDS011;40578;53.178;5.846;2023-04-30T15:07:23;5.63;;;2.30;;
54679;SDS011;40578;53.178;5.846;2023-04-30T15:09:48;3.60;;;2.10;;
54679;SDS011;40578;53.178;5.846;2023-04-30T15:12:14;5.03;;;1.90;;
54679;SDS011;40578;53.178;5.846;2023-04-30T15:14:40;4.60;;;2.13;;
54679;SDS011;40578;53.178;5.846;2023-04-30T15:17:05;3.63;;;2.00;;
54679;SDS011;40578;53.178;5.846;2023-04-30T15:19:31;3.80;;;2.07;;
54679;SDS011;40578;53.178;5.846;2023-04-30T15:21:56;3.20;;;1.90;;
54679;SDS011;40578;53.178;5.846;2023-04-30T15:24:22;3.40;;;2.00;;
54679;SDS011;40578;53.178;5.846;2023-04-30T15:26:48;3.87;;;1.90;;